Terminal Aerodrome Forecast
Issued by NWS

Home | Current Version | Previous Version | Text Only | Print | Product List | Glossary On
Versions: 1 2 3 4 5 6 7 8 9 10 11 12 13 14 15 16
418
FTUS42 KGSP 282103 AAA
TAFAND
TAF AMD
KAND 282103Z 2821/2918 25010G19KT P6SM FEW050 SCT070
      TEMPO 2821/2824 SCT050 BKN070
     FM290200 24007KT P6SM FEW150
     FM291200 26010KT P6SM BKN250=

USA.gov is the U.S. government's official web portal to all federal, state and local government web resources and services.